Airfield :
LOGIN :

Register | Disclaimer

   EN    FR    IT 

 










Legend :    VFR   Marginal VFR   IFR   Intensive IFR   Very Intensive IFR
Visi :
Ceiling :
>= 8 km
>= 3000ft
5 to 8 km
1000 to 3000 ft
1500m to 5 km
500 to 1000 ft
800 to 1500m
200 to 500 ft
< 800m
< 200 ft
Symbols :   Thunderstorms  Fog  Heavy snow  Heavy precipitations  Wind > 20 kt
SIGMETs :     Misc.  Thunderstorms  Icing  Turbulence  Mountain Waves  Volcanic Ashes






- Airport Elevation : 55 ft
- IATA code : PYR


LGAD - Andravida

CURRENT METAR :
  • 040050Z AUTO 10008KT //// -RA ////// 15/10 Q1008 RE//

EXPIRED METARs :
  • 040020Z AUTO 13007KT //// // ////// 16/09 Q1008 RE//
  • 032350Z 13010KT 9999 SCT030 BKN080 16/09 Q1008
  • 032320Z AUTO 13009KT //// // ////// 16/08 Q1009 RE//
  • 032250Z AUTO 12011KT //// // ////// 16/08 Q1009 RE//
  • 032220Z AUTO 14010KT //// // ////// 16/08 Q1009 RE//

TAF TAF LGAD
Valid from the 04 at 00:00 until the 04 at 09:00 UTC


032300Z 0400/0409 14012KT 9999 SCT020 BKN080
PROB40
TEMPO 0400/0409 5000 RA
PROB40
TEMPO 0400/0409 3000 TSRA FEW016CB BKN020 OVC080



MET'MAP, your aeronautical weather chart ! - Copyright ORBIFLY December 2007 - Disclaimer

ORBIFLY MET'MAP TEAM :

Programming & Development : Alexandra Zaïnal
Concept & original design : Baudouin d'Aumeries
Assistance for programming : Marc-Olivier Méhu
Technical & hardware support : Manuel Goepfert

Contact : metmap@orbifly.com




SOURCES & CREDITS :

   NOAA